Fond du Lac, WI (54935)

12:39 PM CDT on August 31, 2016 (GMT -0500)
Hunters Grove | | Change Station

Elev 764 ft 43.79 °N, 88.39 °W | Updated 23 seconds ago

Clear
Clear
77.7 °F
Feels Like 79 °F
N
4.3
Wind Variable Wind from NNE

Today
High -- | Low -- °F
--% Chance of Precip.
Yesterday
High -- | Low -- °F
Precip. -- in
Pressure 30.12 in
Visibility 10.0 miles
Clouds Clear
Heat Index 79 °F
Dew Point 62 °F
Humidity 58%
Rainfall 0.00 in
Snow Depth Not available.
6:16 AM 7:29 PM
Waning Crescent, 0% visible
METAR KFLD 311653Z AUTO 05008KT 10SM CLR 23/12 A3013 RMK AO2 SLP200 T02330122
Pressure 30.12 in
Visibility 10.0 miles
Clouds Clear
Heat Index 79 °F
Dew Point 62 °F
Humidity 58%
Rainfall 0.00 in
Snow Depth Not available.
6:16 AM 7:29 PM
Waning Crescent, 0% visible
METAR KFLD 311653Z AUTO 05008KT 10SM CLR 23/12 A3013 RMK AO2 SLP200 T02330122

10-Day Weather Forecast

Almanac

Astronomy

Aug. 31, 2016 Rise Set
Actual Time
Civil Twilight
Nautical Twilight
Astronomical Twilight
Moon
Length of Visible Light
Length of Day
Tomorrow will be .
, % of the Moon is Illuminated

Today's Extremes

State Highs State Lows

Community

WunderPhotos

Upload Photos

1,936,143 photos uploaded!

WunderBlog® & News

Nearby

Air Quality

  Air Quality AQ Index Pollutant
Not available.

Snow Depth

Station Depth Elevation

Earthquake Activity

City Distance Mag. Time & Date
Minimum magnitude displayed is 2.5.

Coastal Water Temperatures

Place Temperature

Stations

Nearby Weather Stations

Station Location Temp. Windchill Dew Point Humidity Wind Precip. Elev Updated Type
                   

Watches & Warnings

There are currently no watches in effect.